SJV893 WAAA-WADD
Flight info
| Callsign | SJV893 |
|---|---|
| Flight time | 1h 7m |
| Altitude | 34000 |
| Route | LIPOT W41 PEDET |
| Aircraft | A320/M-SDE3FGHIRWY/LB1 |
Departure
| Time | 2026-04-23 07:52 |
|---|---|
| Airport | Sultan Hasanuddin International Airport (WAAA) |
Arrival
| Time | 2026-04-23 09:00 |
|---|---|
| Airport | Denpasar I Gusti Ngurah Rai International Airport (WADD) |
| Time | Latitude | Longitude | Altitude | Speed | Heading |
|---|---|---|---|---|---|
| 2026-04-23 07:34 | -5.08036 | 119.54601 | 41 ft | 0 kts | 299° |
| 2026-04-23 07:43 | -5.08036 | 119.54602 | 41 ft | 0 kts | 299° |
| 2026-04-23 07:43 | -5.08037 | 119.54603 | 41 ft | 2 kts | 298° |
| 2026-04-23 07:43 | -5.08045 | 119.54618 | 40 ft | 2 kts | 299° |
| 2026-04-23 07:44 | -5.08053 | 119.54632 | 41 ft | 2 kts | 301° |
| 2026-04-23 07:44 | -5.08062 | 119.54645 | 41 ft | 2 kts | 317° |
| 2026-04-23 07:44 | -5.08076 | 119.54655 | 40 ft | 2 kts | 347° |
| 2026-04-23 07:44 | -5.08088 | 119.54655 | 40 ft | 1 kts | 21° |
| 2026-04-23 07:45 | -5.08089 | 119.54655 | 40 ft | 0 kts | 24° |
| 2026-04-23 07:47 | -5.08088 | 119.54656 | 40 ft | 1 kts | 28° |
| 2026-04-23 07:47 | -5.08054 | 119.54675 | 39 ft | 10 kts | 29° |
| 2026-04-23 07:47 | -5.08013 | 119.54733 | 41 ft | 11 kts | 101° |
| 2026-04-23 07:48 | -5.08050 | 119.54817 | 41 ft | 15 kts | 116° |
| 2026-04-23 07:48 | -5.08015 | 119.54899 | 41 ft | 14 kts | 31° |
| 2026-04-23 07:48 | -5.07922 | 119.54954 | 40 ft | 17 kts | 30° |
| 2026-04-23 07:48 | -5.07812 | 119.55016 | 41 ft | 19 kts | 29° |
| 2026-04-23 07:49 | -5.07690 | 119.55088 | 41 ft | 21 kts | 30° |
| 2026-04-23 07:49 | -5.07557 | 119.55165 | 41 ft | 23 kts | 30° |
| 2026-04-23 07:49 | -5.07410 | 119.55249 | 41 ft | 25 kts | 30° |
| 2026-04-23 07:49 | -5.07253 | 119.55339 | 41 ft | 27 kts | 30° |
| 2026-04-23 07:50 | -5.07087 | 119.55436 | 41 ft | 28 kts | 30° |
| 2026-04-23 07:50 | -5.06912 | 119.55536 | 40 ft | 30 kts | 30° |
| 2026-04-23 07:50 | -5.06751 | 119.55628 | 40 ft | 20 kts | 30° |
| 2026-04-23 07:50 | -5.06676 | 119.55684 | 41 ft | 13 kts | 59° |
| 2026-04-23 07:51 | -5.06691 | 119.55762 | 41 ft | 8 kts | 128° |
| 2026-04-23 07:51 | -5.06737 | 119.55809 | 41 ft | 11 kts | 152° |
| 2026-04-23 07:51 | -5.06812 | 119.55797 | 41 ft | 12 kts | 208° |
| 2026-04-23 07:51 | -5.06910 | 119.55741 | 40 ft | 31 kts | 210° |
| 2026-04-23 07:52 | -5.07328 | 119.55501 | 39 ft | 105 kts | 210° |
| 2026-04-23 07:52 | -5.08137 | 119.55035 | 40 ft | 160 kts | 210° |
| 2026-04-23 07:52 | -5.09187 | 119.54430 | 391 ft | 178 kts | 210° |
| 2026-04-23 07:52 | -5.10283 | 119.53870 | 1141 ft | 175 kts | 209° |
| 2026-04-23 07:53 | -5.11314 | 119.53292 | 2014 ft | 168 kts | 211° |
| 2026-04-23 07:53 | -5.12370 | 119.52647 | 2526 ft | 188 kts | 212° |
| 2026-04-23 07:53 | -5.13575 | 119.52020 | 2994 ft | 209 kts | 199° |
| 2026-04-23 07:53 | -5.15092 | 119.51776 | 3430 ft | 233 kts | 179° |
| 2026-04-23 07:54 | -5.16793 | 119.51795 | 3978 ft | 255 kts | 178° |
| 2026-04-23 07:54 | -5.18636 | 119.51814 | 4622 ft | 272 kts | 178° |
| 2026-04-23 07:54 | -5.20551 | 119.51827 | 5535 ft | 276 kts | 178° |
| 2026-04-23 07:54 | -5.22489 | 119.51835 | 6434 ft | 280 kts | 178° |
| 2026-04-23 07:55 | -5.24455 | 119.51841 | 7276 ft | 285 kts | 178° |
| 2026-04-23 07:55 | -5.26458 | 119.51846 | 8132 ft | 289 kts | 178° |
| 2026-04-23 07:55 | -5.28488 | 119.51851 | 8965 ft | 294 kts | 178° |
| 2026-04-23 07:55 | -5.30526 | 119.51857 | 9772 ft | 299 kts | 179° |
| 2026-04-23 07:56 | -5.32634 | 119.51862 | 10419 ft | 310 kts | 178° |
| 2026-04-23 07:56 | -5.34871 | 119.51869 | 10674 ft | 333 kts | 179° |
| 2026-04-23 07:56 | -5.37269 | 119.51877 | 10973 ft | 352 kts | 179° |
| 2026-04-23 07:56 | -5.39716 | 119.51575 | 11648 ft | 358 kts | 197° |
| 2026-04-23 07:57 | -5.41945 | 119.50429 | 12359 ft | 364 kts | 217° |
| 2026-04-23 07:57 | -5.43668 | 119.48596 | 13054 ft | 369 kts | 234° |
| 2026-04-23 07:57 | -5.45126 | 119.46452 | 13733 ft | 374 kts | 237° |
| 2026-04-23 07:57 | -5.46541 | 119.44248 | 14369 ft | 377 kts | 237° |
| 2026-04-23 07:58 | -5.47977 | 119.42022 | 15015 ft | 380 kts | 237° |
| 2026-04-23 07:58 | -5.49442 | 119.39791 | 15641 ft | 384 kts | 237° |
| 2026-04-23 07:58 | -5.50937 | 119.37547 | 16229 ft | 388 kts | 236° |
| 2026-04-23 07:58 | -5.52453 | 119.35292 | 16831 ft | 392 kts | 236° |
| 2026-04-23 07:59 | -5.53985 | 119.33019 | 17428 ft | 395 kts | 236° |
| 2026-04-23 07:59 | -5.55532 | 119.30726 | 18015 ft | 398 kts | 236° |
| 2026-04-23 07:59 | -5.56568 | 119.29190 | 18353 ft | 401 kts | 236° |
| 2026-04-23 07:59 | -5.58654 | 119.26098 | 19019 ft | 405 kts | 236° |
| 2026-04-23 08:00 | -5.60239 | 119.23745 | 19512 ft | 408 kts | 236° |
| 2026-04-23 08:00 | -5.61836 | 119.21374 | 20000 ft | 411 kts | 236° |
| 2026-04-23 08:00 | -5.62903 | 119.19790 | 20324 ft | 414 kts | 236° |
| 2026-04-23 08:00 | -5.65071 | 119.16572 | 20970 ft | 418 kts | 236° |
| 2026-04-23 08:01 | -5.66155 | 119.14962 | 21294 ft | 420 kts | 236° |
| 2026-04-23 08:01 | -5.67802 | 119.12517 | 21777 ft | 423 kts | 236° |
| 2026-04-23 08:01 | -5.69457 | 119.10059 | 22245 ft | 427 kts | 236° |
| 2026-04-23 08:01 | -5.71103 | 119.07614 | 22697 ft | 430 kts | 236° |
| 2026-04-23 08:02 | -5.72790 | 119.05107 | 23165 ft | 433 kts | 236° |
| 2026-04-23 08:02 | -5.74489 | 119.02584 | 23585 ft | 436 kts | 235° |
| 2026-04-23 08:02 | -5.76194 | 119.00050 | 23988 ft | 439 kts | 235° |
| 2026-04-23 08:02 | -5.77910 | 118.97501 | 24396 ft | 441 kts | 235° |
| 2026-04-23 08:03 | -5.79631 | 118.94942 | 24765 ft | 444 kts | 235° |
| 2026-04-23 08:03 | -5.81366 | 118.92364 | 25133 ft | 446 kts | 235° |
| 2026-04-23 08:03 | -5.83114 | 118.89765 | 25511 ft | 449 kts | 235° |
| 2026-04-23 08:03 | -5.84846 | 118.87189 | 25865 ft | 451 kts | 235° |
| 2026-04-23 08:04 | -5.86611 | 118.84566 | 26223 ft | 454 kts | 235° |
| 2026-04-23 08:04 | -5.88380 | 118.81934 | 26565 ft | 456 kts | 235° |
| 2026-04-23 08:04 | -5.90163 | 118.79283 | 26903 ft | 459 kts | 235° |
| 2026-04-23 08:04 | -5.91953 | 118.76619 | 27233 ft | 461 kts | 235° |
| 2026-04-23 08:05 | -5.93757 | 118.73935 | 27556 ft | 464 kts | 235° |
| 2026-04-23 08:05 | -5.95570 | 118.71238 | 27870 ft | 466 kts | 235° |
| 2026-04-23 08:05 | -5.97388 | 118.68532 | 28199 ft | 468 kts | 235° |
| 2026-04-23 08:05 | -5.99215 | 118.65812 | 28502 ft | 471 kts | 235° |
| 2026-04-23 08:06 | -6.01057 | 118.63071 | 28799 ft | 473 kts | 235° |
| 2026-04-23 08:06 | -6.02901 | 118.60325 | 29094 ft | 475 kts | 235° |
| 2026-04-23 08:06 | -6.04755 | 118.57565 | 29380 ft | 477 kts | 235° |
| 2026-04-23 08:06 | -6.06593 | 118.54828 | 29654 ft | 480 kts | 235° |
| 2026-04-23 08:07 | -6.08466 | 118.52037 | 29925 ft | 482 kts | 235° |
| 2026-04-23 08:07 | -6.10346 | 118.49236 | 30186 ft | 484 kts | 235° |
| 2026-04-23 08:07 | -6.12233 | 118.46425 | 30466 ft | 485 kts | 235° |
| 2026-04-23 08:07 | -6.14122 | 118.43611 | 30731 ft | 487 kts | 235° |
| 2026-04-23 08:08 | -6.16019 | 118.40783 | 31020 ft | 488 kts | 235° |
| 2026-04-23 08:08 | -6.17914 | 118.37959 | 31377 ft | 487 kts | 235° |
| 2026-04-23 08:08 | -6.19808 | 118.35135 | 31761 ft | 486 kts | 235° |
| 2026-04-23 08:08 | -6.21695 | 118.32322 | 32135 ft | 484 kts | 235° |
| 2026-04-23 08:09 | -6.23577 | 118.29515 | 32499 ft | 483 kts | 235° |
| 2026-04-23 08:09 | -6.25453 | 118.26718 | 32853 ft | 482 kts | 235° |
| 2026-04-23 08:09 | -6.27328 | 118.23922 | 33212 ft | 481 kts | 235° |
| 2026-04-23 08:09 | -6.29175 | 118.21166 | 33545 ft | 480 kts | 235° |
| 2026-04-23 08:10 | -6.31037 | 118.18387 | 33774 ft | 479 kts | 235° |
| 2026-04-23 08:10 | -6.36604 | 118.10078 | 33816 ft | 477 kts | 235° |
| 2026-04-23 08:11 | -6.40311 | 118.04542 | 33814 ft | 477 kts | 235° |
| 2026-04-23 08:11 | -6.44014 | 117.99010 | 33814 ft | 476 kts | 235° |
| 2026-04-23 08:12 | -6.47693 | 117.93512 | 33816 ft | 476 kts | 235° |
| 2026-04-23 08:12 | -6.51399 | 117.87974 | 33817 ft | 477 kts | 235° |
| 2026-04-23 08:13 | -6.55098 | 117.82442 | 33821 ft | 477 kts | 235° |
| 2026-04-23 08:13 | -6.58805 | 117.76899 | 33826 ft | 477 kts | 235° |
| 2026-04-23 08:14 | -6.62509 | 117.71357 | 33819 ft | 477 kts | 235° |
| 2026-04-23 08:14 | -6.66183 | 117.65859 | 33821 ft | 476 kts | 235° |
| 2026-04-23 08:15 | -6.70154 | 117.60538 | 33822 ft | 475 kts | 229° |
| 2026-04-23 08:15 | -6.74442 | 117.55469 | 33817 ft | 475 kts | 229° |
| 2026-04-23 08:16 | -6.78697 | 117.50414 | 33815 ft | 475 kts | 229° |
| 2026-04-23 08:16 | -6.82974 | 117.45333 | 33816 ft | 475 kts | 229° |
| 2026-04-23 08:17 | -6.87245 | 117.40259 | 33811 ft | 475 kts | 229° |
| 2026-04-23 08:17 | -6.91513 | 117.35187 | 33815 ft | 475 kts | 229° |
| 2026-04-23 08:18 | -6.95757 | 117.30143 | 33817 ft | 475 kts | 229° |
| 2026-04-23 08:18 | -7.00026 | 117.25066 | 33813 ft | 475 kts | 229° |
| 2026-04-23 08:19 | -7.04294 | 117.19990 | 33811 ft | 475 kts | 229° |
| 2026-04-23 08:19 | -7.08558 | 117.14917 | 33810 ft | 475 kts | 229° |
| 2026-04-23 08:20 | -7.12829 | 117.09834 | 33661 ft | 476 kts | 229° |
| 2026-04-23 08:20 | -7.14965 | 117.07291 | 33413 ft | 475 kts | 229° |
| 2026-04-23 08:20 | -7.17104 | 117.04744 | 33152 ft | 475 kts | 229° |
| 2026-04-23 08:21 | -7.19246 | 117.02193 | 32901 ft | 476 kts | 229° |
| 2026-04-23 08:21 | -7.21389 | 116.99642 | 32430 ft | 478 kts | 229° |
| 2026-04-23 08:21 | -7.23509 | 116.97116 | 31597 ft | 479 kts | 229° |
| 2026-04-23 08:21 | -7.25673 | 116.94538 | 30430 ft | 482 kts | 229° |
| 2026-04-23 08:22 | -7.27823 | 116.91976 | 29683 ft | 474 kts | 229° |
| 2026-04-23 08:22 | -7.29929 | 116.89465 | 29166 ft | 465 kts | 229° |
| 2026-04-23 08:22 | -7.32001 | 116.86996 | 28571 ft | 457 kts | 229° |
| 2026-04-23 08:22 | -7.34028 | 116.84578 | 27972 ft | 447 kts | 229° |
| 2026-04-23 08:23 | -7.36030 | 116.82192 | 27380 ft | 444 kts | 229° |
| 2026-04-23 08:23 | -7.38016 | 116.79824 | 26789 ft | 441 kts | 229° |
| 2026-04-23 08:23 | -7.39995 | 116.77464 | 26175 ft | 439 kts | 229° |
| 2026-04-23 08:23 | -7.41958 | 116.75123 | 25566 ft | 438 kts | 229° |
| 2026-04-23 08:24 | -7.43920 | 116.72783 | 24988 ft | 435 kts | 229° |
| 2026-04-23 08:24 | -7.45873 | 116.70452 | 24407 ft | 433 kts | 230° |
| 2026-04-23 08:24 | -7.47798 | 116.68155 | 23822 ft | 432 kts | 230° |
| 2026-04-23 08:24 | -7.49743 | 116.65834 | 23181 ft | 431 kts | 230° |
| 2026-04-23 08:25 | -7.51674 | 116.63532 | 22620 ft | 427 kts | 229° |
| 2026-04-23 08:25 | -7.53603 | 116.61309 | 22447 ft | 418 kts | 228° |
| 2026-04-23 08:25 | -7.55563 | 116.59102 | 22388 ft | 427 kts | 228° |
| 2026-04-23 08:25 | -7.57554 | 116.56863 | 22321 ft | 426 kts | 228° |
| 2026-04-23 08:26 | -7.59525 | 116.54641 | 22271 ft | 424 kts | 228° |
| 2026-04-23 08:26 | -7.61491 | 116.52415 | 22155 ft | 425 kts | 228° |
| 2026-04-23 08:26 | -7.63426 | 116.50220 | 22033 ft | 424 kts | 228° |
| 2026-04-23 08:26 | -7.65379 | 116.48002 | 21910 ft | 422 kts | 228° |
| 2026-04-23 08:27 | -7.67329 | 116.45786 | 21790 ft | 422 kts | 228° |
| 2026-04-23 08:27 | -7.69273 | 116.43576 | 21665 ft | 421 kts | 228° |
| 2026-04-23 08:27 | -7.71218 | 116.41365 | 21538 ft | 420 kts | 229° |
| 2026-04-23 08:27 | -7.73162 | 116.39156 | 21414 ft | 419 kts | 229° |
| 2026-04-23 08:28 | -7.75100 | 116.36952 | 21295 ft | 418 kts | 229° |
| 2026-04-23 08:28 | -7.77029 | 116.34759 | 21174 ft | 417 kts | 229° |
| 2026-04-23 08:28 | -7.78920 | 116.32608 | 21054 ft | 413 kts | 229° |
| 2026-04-23 08:28 | -7.80798 | 116.30439 | 20976 ft | 405 kts | 232° |
| 2026-04-23 08:29 | -7.82227 | 116.28056 | 20844 ft | 389 kts | 247° |
| 2026-04-23 08:29 | -7.83000 | 116.25516 | 20694 ft | 370 kts | 261° |
| 2026-04-23 08:29 | -7.83215 | 116.22989 | 20407 ft | 356 kts | 268° |
| 2026-04-23 08:29 | -7.83326 | 116.20505 | 20088 ft | 351 kts | 268° |
| 2026-04-23 08:30 | -7.83440 | 116.18058 | 20018 ft | 350 kts | 268° |
| 2026-04-23 08:30 | -7.83556 | 116.15585 | 19976 ft | 355 kts | 268° |
| 2026-04-23 08:30 | -7.83675 | 116.13095 | 19926 ft | 353 kts | 268° |
| 2026-04-23 08:30 | -7.83794 | 116.10622 | 19880 ft | 353 kts | 268° |
| 2026-04-23 08:31 | -7.83912 | 116.08151 | 19831 ft | 353 kts | 268° |
| 2026-04-23 08:31 | -7.84030 | 116.05675 | 19783 ft | 353 kts | 268° |
| 2026-04-23 08:31 | -7.84146 | 116.03235 | 19737 ft | 352 kts | 268° |
| 2026-04-23 08:31 | -7.84263 | 116.00768 | 19680 ft | 352 kts | 268° |
| 2026-04-23 08:32 | -7.84380 | 115.98299 | 19578 ft | 352 kts | 268° |
| 2026-04-23 08:32 | -7.84497 | 115.95840 | 19480 ft | 350 kts | 268° |
| 2026-04-23 08:32 | -7.84613 | 115.93386 | 19380 ft | 350 kts | 268° |
| 2026-04-23 08:32 | -7.84729 | 115.90933 | 19273 ft | 350 kts | 268° |
| 2026-04-23 08:33 | -7.84845 | 115.88485 | 19175 ft | 349 kts | 268° |
| 2026-04-23 08:33 | -7.84960 | 115.86039 | 19071 ft | 348 kts | 268° |
| 2026-04-23 08:33 | -7.85076 | 115.83593 | 18969 ft | 348 kts | 268° |
| 2026-04-23 08:33 | -7.85191 | 115.81148 | 18868 ft | 347 kts | 268° |
| 2026-04-23 08:34 | -7.85305 | 115.78718 | 18770 ft | 347 kts | 268° |
| 2026-04-23 08:34 | -7.85417 | 115.76322 | 18668 ft | 346 kts | 268° |
| 2026-04-23 08:34 | -7.85531 | 115.73897 | 18565 ft | 345 kts | 268° |
| 2026-04-23 08:34 | -7.85644 | 115.71476 | 18468 ft | 345 kts | 268° |
| 2026-04-23 08:35 | -7.85758 | 115.69059 | 18368 ft | 345 kts | 268° |
| 2026-04-23 08:35 | -7.85870 | 115.66647 | 18269 ft | 344 kts | 268° |
| 2026-04-23 08:35 | -7.85983 | 115.64234 | 18166 ft | 343 kts | 268° |
| 2026-04-23 08:35 | -7.86095 | 115.61829 | 18063 ft | 343 kts | 268° |
| 2026-04-23 08:36 | -7.86207 | 115.59425 | 17950 ft | 342 kts | 268° |
| 2026-04-23 08:36 | -7.86318 | 115.57028 | 17859 ft | 342 kts | 268° |
| 2026-04-23 08:36 | -7.86429 | 115.54640 | 17761 ft | 341 kts | 268° |
| 2026-04-23 08:36 | -7.86538 | 115.52281 | 17663 ft | 341 kts | 268° |
| 2026-04-23 08:37 | -7.86649 | 115.49894 | 17563 ft | 340 kts | 268° |
| 2026-04-23 08:37 | -7.86759 | 115.47508 | 17468 ft | 340 kts | 268° |
| 2026-04-23 08:37 | -7.86869 | 115.45127 | 17367 ft | 339 kts | 268° |
| 2026-04-23 08:37 | -7.86979 | 115.42752 | 17270 ft | 338 kts | 268° |
| 2026-04-23 08:38 | -7.87088 | 115.40379 | 17179 ft | 338 kts | 268° |
| 2026-04-23 08:38 | -7.87197 | 115.38011 | 17075 ft | 338 kts | 268° |
| 2026-04-23 08:38 | -7.87306 | 115.35647 | 16975 ft | 337 kts | 268° |
| 2026-04-23 08:38 | -7.87415 | 115.33285 | 16879 ft | 338 kts | 268° |
| 2026-04-23 08:39 | -7.87526 | 115.30821 | 16780 ft | 366 kts | 268° |
| 2026-04-23 08:39 | -7.87646 | 115.28160 | 16666 ft | 392 kts | 268° |
| 2026-04-23 08:39 | -7.87773 | 115.25374 | 16537 ft | 400 kts | 268° |
| 2026-04-23 08:39 | -7.87901 | 115.22612 | 16431 ft | 397 kts | 268° |
| 2026-04-23 08:40 | -7.88029 | 115.19835 | 16313 ft | 396 kts | 268° |
| 2026-04-23 08:40 | -7.88433 | 115.17088 | 16201 ft | 397 kts | 256° |
| 2026-04-23 08:40 | -7.89413 | 115.14491 | 16087 ft | 397 kts | 243° |
| 2026-04-23 08:40 | -7.90891 | 115.12139 | 15972 ft | 397 kts | 235° |
| 2026-04-23 08:41 | -7.92469 | 115.09851 | 15858 ft | 396 kts | 236° |
| 2026-04-23 08:41 | -7.94036 | 115.07565 | 15748 ft | 396 kts | 236° |
| 2026-04-23 08:41 | -7.95601 | 115.05277 | 15631 ft | 395 kts | 236° |
| 2026-04-23 08:41 | -7.97158 | 115.02997 | 15518 ft | 394 kts | 236° |
| 2026-04-23 08:42 | -7.98716 | 115.00716 | 15412 ft | 394 kts | 236° |
| 2026-04-23 08:42 | -8.00270 | 114.98441 | 15289 ft | 393 kts | 236° |
| 2026-04-23 08:42 | -8.01820 | 114.96172 | 15178 ft | 392 kts | 236° |
| 2026-04-23 08:42 | -8.03368 | 114.93904 | 15059 ft | 392 kts | 236° |
| 2026-04-23 08:43 | -8.04915 | 114.91639 | 14947 ft | 391 kts | 236° |
| 2026-04-23 08:43 | -8.06437 | 114.89409 | 14850 ft | 390 kts | 236° |
| 2026-04-23 08:43 | -8.07976 | 114.87155 | 14743 ft | 389 kts | 236° |
| 2026-04-23 08:43 | -8.09508 | 114.84910 | 14437 ft | 386 kts | 236° |
| 2026-04-23 08:44 | -8.11026 | 114.82687 | 14117 ft | 383 kts | 236° |
| 2026-04-23 08:44 | -8.12536 | 114.80472 | 13883 ft | 384 kts | 236° |
| 2026-04-23 08:44 | -8.14054 | 114.78248 | 13638 ft | 384 kts | 236° |
| 2026-04-23 08:44 | -8.15565 | 114.76032 | 13385 ft | 382 kts | 236° |
| 2026-04-23 08:45 | -8.17049 | 114.73856 | 13156 ft | 380 kts | 236° |
| 2026-04-23 08:45 | -8.18544 | 114.71664 | 13014 ft | 378 kts | 236° |
| 2026-04-23 08:45 | -8.20039 | 114.69470 | 12876 ft | 379 kts | 236° |
| 2026-04-23 08:45 | -8.21535 | 114.67276 | 12647 ft | 378 kts | 236° |
| 2026-04-23 08:46 | -8.23025 | 114.65092 | 12411 ft | 376 kts | 235° |
| 2026-04-23 08:46 | -8.24822 | 114.63187 | 12185 ft | 375 kts | 217° |
| 2026-04-23 08:46 | -8.27129 | 114.61972 | 11933 ft | 375 kts | 197° |
| 2026-04-23 08:46 | -8.29652 | 114.61580 | 11622 ft | 370 kts | 178° |
| 2026-04-23 08:47 | -8.32158 | 114.62033 | 11163 ft | 365 kts | 158° |
| 2026-04-23 08:47 | -8.34369 | 114.63250 | 10788 ft | 363 kts | 145° |
| 2026-04-23 08:47 | -8.36469 | 114.64679 | 10398 ft | 362 kts | 146° |
| 2026-04-23 08:47 | -8.38617 | 114.65997 | 10010 ft | 358 kts | 149° |
| 2026-04-23 08:48 | -8.40821 | 114.67163 | 9616 ft | 358 kts | 153° |
| 2026-04-23 08:48 | -8.43062 | 114.68222 | 9318 ft | 350 kts | 155° |
| 2026-04-23 08:48 | -8.45236 | 114.69190 | 9127 ft | 332 kts | 155° |
| 2026-04-23 08:48 | -8.47298 | 114.70084 | 8944 ft | 313 kts | 155° |
| 2026-04-23 08:49 | -8.49245 | 114.70925 | 8690 ft | 297 kts | 156° |
| 2026-04-23 08:49 | -8.51125 | 114.71738 | 8165 ft | 292 kts | 155° |
| 2026-04-23 08:49 | -8.52962 | 114.72536 | 7650 ft | 291 kts | 155° |
| 2026-04-23 08:49 | -8.54785 | 114.73401 | 7294 ft | 288 kts | 149° |
| 2026-04-23 08:50 | -8.56416 | 114.74553 | 6920 ft | 285 kts | 138° |
| 2026-04-23 08:50 | -8.57885 | 114.75852 | 6767 ft | 275 kts | 137° |
| 2026-04-23 08:50 | -8.58832 | 114.76677 | 6706 ft | 267 kts | 138° |
| 2026-04-23 08:50 | -8.60200 | 114.77860 | 6549 ft | 252 kts | 138° |
| 2026-04-23 08:51 | -8.61519 | 114.78999 | 6204 ft | 248 kts | 138° |
| 2026-04-23 08:51 | -8.62825 | 114.80129 | 5780 ft | 246 kts | 138° |
| 2026-04-23 08:51 | -8.64125 | 114.81256 | 5339 ft | 246 kts | 138° |
| 2026-04-23 08:51 | -8.65415 | 114.82374 | 5043 ft | 244 kts | 138° |
| 2026-04-23 08:52 | -8.66708 | 114.83496 | 4791 ft | 244 kts | 138° |
| 2026-04-23 08:52 | -8.67974 | 114.84592 | 4691 ft | 234 kts | 138° |
| 2026-04-23 08:52 | -8.69192 | 114.85646 | 4490 ft | 229 kts | 138° |
| 2026-04-23 08:52 | -8.70394 | 114.86690 | 4153 ft | 227 kts | 138° |
| 2026-04-23 08:53 | -8.71590 | 114.87724 | 3757 ft | 225 kts | 138° |
| 2026-04-23 08:53 | -8.72767 | 114.88744 | 3519 ft | 225 kts | 138° |
| 2026-04-23 08:53 | -8.73953 | 114.89773 | 3415 ft | 220 kts | 138° |
| 2026-04-23 08:53 | -8.75018 | 114.90807 | 3316 ft | 209 kts | 122° |
| 2026-04-23 08:54 | -8.75471 | 114.92126 | 3242 ft | 193 kts | 91° |
| 2026-04-23 08:54 | -8.75469 | 114.93422 | 3150 ft | 177 kts | 89° |
| 2026-04-23 08:54 | -8.75474 | 114.94628 | 2963 ft | 168 kts | 90° |
| 2026-04-23 08:54 | -8.75485 | 114.95790 | 2657 ft | 162 kts | 90° |
| 2026-04-23 08:55 | -8.75494 | 114.96897 | 2490 ft | 160 kts | 90° |
| 2026-04-23 08:55 | -8.75502 | 114.98041 | 2509 ft | 164 kts | 90° |
| 2026-04-23 08:55 | -8.75510 | 114.99199 | 2511 ft | 165 kts | 90° |
| 2026-04-23 08:55 | -8.75504 | 115.00360 | 2506 ft | 165 kts | 88° |
| 2026-04-23 08:56 | -8.75459 | 115.01524 | 2481 ft | 166 kts | 87° |
| 2026-04-23 08:56 | -8.75402 | 115.02677 | 2338 ft | 160 kts | 87° |
| 2026-04-23 08:56 | -8.75353 | 115.03728 | 2273 ft | 139 kts | 87° |
| 2026-04-23 08:56 | -8.75311 | 115.04670 | 2012 ft | 132 kts | 88° |
| 2026-04-23 08:57 | -8.75272 | 115.05588 | 1739 ft | 128 kts | 89° |
| 2026-04-23 08:57 | -8.75238 | 115.06467 | 1713 ft | 128 kts | 88° |
| 2026-04-23 08:57 | -8.75204 | 115.07396 | 1655 ft | 135 kts | 88° |
| 2026-04-23 08:57 | -8.75167 | 115.08316 | 1501 ft | 128 kts | 88° |
| 2026-04-23 08:58 | -8.75132 | 115.09222 | 1193 ft | 129 kts | 88° |
| 2026-04-23 08:58 | -8.75098 | 115.10111 | 1010 ft | 124 kts | 89° |
| 2026-04-23 08:58 | -8.75063 | 115.11016 | 874 ft | 133 kts | 89° |
| 2026-04-23 08:58 | -8.75024 | 115.11937 | 700 ft | 133 kts | 90° |
| 2026-04-23 08:59 | -8.74989 | 115.12875 | 552 ft | 131 kts | 89° |
| 2026-04-23 08:59 | -8.74950 | 115.13775 | 353 ft | 127 kts | 90° |
| 2026-04-23 08:59 | -8.74925 | 115.14679 | 204 ft | 128 kts | 90° |
| 2026-04-23 08:59 | -8.74888 | 115.15579 | 46 ft | 128 kts | 90° |
| 2026-04-23 09:00 | -8.74858 | 115.16381 | 28 ft | 88 kts | 87° |
| 2026-04-23 09:00 | -8.74840 | 115.16800 | 27 ft | 36 kts | 88° |
| 2026-04-23 09:00 | -8.74830 | 115.17051 | 28 ft | 35 kts | 88° |
| 2026-04-23 09:00 | -8.74822 | 115.17247 | 27 ft | 15 kts | 88° |
| 2026-04-23 09:01 | -8.74763 | 115.17315 | 28 ft | 13 kts | 9° |
| 2026-04-23 09:01 | -8.74686 | 115.17312 | 31 ft | 10 kts | 357° |
| 2026-04-23 09:01 | -8.74657 | 115.17259 | 32 ft | 11 kts | 269° |
| 2026-04-23 09:01 | -8.74660 | 115.17170 | 32 ft | 15 kts | 268° |
| 2026-04-23 09:02 | -8.74665 | 115.17060 | 32 ft | 15 kts | 267° |
| 2026-04-23 09:02 | -8.74670 | 115.16961 | 32 ft | 8 kts | 268° |
| 2026-04-23 09:02 | -8.74630 | 115.16938 | 32 ft | 8 kts | 357° |
| 2026-04-23 09:02 | -8.74563 | 115.16934 | 32 ft | 11 kts | 358° |
| 2026-04-23 09:03 | -8.74539 | 115.16933 | 33 ft | 0 kts | 358° |